sensor_id;sensor_type;location;lat;lon;timestamp;pressure;altitude;pressure_sealevel;temperature;humidity
61769;BME280;47669;48.712;9.016;2023-08-01T00:02:24;95681.31;;;16.39;82.28
61769;BME280;47669;48.712;9.016;2023-08-01T00:04:50;95681.03;;;16.35;82.34
61769;BME280;47669;48.712;9.016;2023-08-01T00:07:15;95671.72;;;16.43;82.36
61769;BME280;47669;48.712;9.016;2023-08-01T00:09:40;95670.88;;;16.42;81.99
61769;BME280;47669;48.712;9.016;2023-08-01T00:12:06;95671.16;;;16.46;81.20
61769;BME280;47669;48.712;9.016;2023-08-01T00:14:31;95661.31;;;16.41;82.74
61769;BME280;47669;48.712;9.016;2023-08-01T00:16:57;95654.66;;;16.39;81.59
61769;BME280;47669;48.712;9.016;2023-08-01T00:19:23;95667.69;;;16.45;80.87
61769;BME280;47669;48.712;9.016;2023-08-01T00:21:48;95661.28;;;16.52;80.79
61769;BME280;47669;48.712;9.016;2023-08-01T00:24:13;95656.47;;;16.48;80.59
61769;BME280;47669;48.712;9.016;2023-08-01T00:26:38;95652.22;;;16.53;80.62
61769;BME280;47669;48.712;9.016;2023-08-01T00:29:04;95646.34;;;16.51;80.60
61769;BME280;47669;48.712;9.016;2023-08-01T00:31:29;95638.09;;;16.47;80.54
61769;BME280;47669;48.712;9.016;2023-08-01T00:33:54;95630.66;;;16.39;81.71
61769;BME280;47669;48.712;9.016;2023-08-01T00:36:19;95631.19;;;16.41;80.91
61769;BME280;47669;48.712;9.016;2023-08-01T00:38:45;95626.66;;;16.36;80.95
61769;BME280;47669;48.712;9.016;2023-08-01T00:41:10;95627.69;;;16.45;81.31
61769;BME280;47669;48.712;9.016;2023-08-01T00:43:35;95624.78;;;16.47;81.08
61769;BME280;47669;48.712;9.016;2023-08-01T00:46:05;95622.88;;;16.42;80.83
61769;BME280;47669;48.712;9.016;2023-08-01T00:48:31;95620.50;;;16.36;82.27
61769;BME280;47669;48.712;9.016;2023-08-01T00:50:57;95625.88;;;16.31;82.92
61769;BME280;47669;48.712;9.016;2023-08-01T00:53:24;95619.72;;;16.35;81.89
61769;BME280;47669;48.712;9.016;2023-08-01T00:55:51;95617.59;;;16.37;82.88
61769;BME280;47669;48.712;9.016;2023-08-01T00:58:17;95611.47;;;16.37;82.53
61769;BME280;47669;48.712;9.016;2023-08-01T01:00:43;95600.03;;;16.11;83.64
61769;BME280;47669;48.712;9.016;2023-08-01T01:03:08;95606.13;;;16.32;81.59
61769;BME280;47669;48.712;9.016;2023-08-01T01:05:36;95602.13;;;16.34;82.60
61769;BME280;47669;48.712;9.016;2023-08-01T01:08:04;95604.28;;;16.22;82.57
61769;BME280;47669;48.712;9.016;2023-08-01T01:10:30;95595.47;;;16.37;81.42
61769;BME280;47669;48.712;9.016;2023-08-01T01:12:55;95602.94;;;16.35;81.95
61769;BME280;47669;48.712;9.016;2023-08-01T01:15:21;95586.66;;;16.36;81.32
61769;BME280;47669;48.712;9.016;2023-08-01T01:17:46;95585.59;;;16.32;81.24
61769;BME280;47669;48.712;9.016;2023-08-01T01:20:11;95604.78;;;16.39;81.22
61769;BME280;47669;48.712;9.016;2023-08-01T01:22:37;95600.47;;;16.48;80.91
61769;BME280;47669;48.712;9.016;2023-08-01T01:25:04;95578.66;;;16.36;81.85
61769;BME280;47669;48.712;9.016;2023-08-01T01:27:31;95566.72;;;16.13;84.68
61769;BME280;47669;48.712;9.016;2023-08-01T01:29:57;95558.69;;;16.28;82.99
61769;BME280;47669;48.712;9.016;2023-08-01T01:32:22;95576.03;;;16.11;84.68
61769;BME280;47669;48.712;9.016;2023-08-01T01:34:48;95555.25;;;16.18;84.29
61769;BME280;47669;48.712;9.016;2023-08-01T01:37:13;95548.88;;;15.98;85.60
61769;BME280;47669;48.712;9.016;2023-08-01T01:39:38;95542.72;;;16.08;86.48
61769;BME280;47669;48.712;9.016;2023-08-01T01:42:04;95539.81;;;15.89;86.55
61769;BME280;47669;48.712;9.016;2023-08-01T01:44:29;95528.63;;;15.97;86.87
61769;BME280;47669;48.712;9.016;2023-08-01T01:46:55;95520.38;;;15.99;87.37
61769;BME280;47669;48.712;9.016;2023-08-01T01:49:20;95519.31;;;15.95;86.58
61769;BME280;47669;48.712;9.016;2023-08-01T01:51:45;95512.94;;;15.85;87.09
61769;BME280;47669;48.712;9.016;2023-08-01T01:54:11;95519.56;;;15.93;86.71
61769;BME280;47669;48.712;9.016;2023-08-01T01:56:36;95507.34;;;15.92;85.98
61769;BME280;47669;48.712;9.016;2023-08-01T01:59:01;95498.28;;;15.83;87.08
61769;BME280;47669;48.712;9.016;2023-08-01T02:01:27;95503.06;;;15.81;87.12
61769;BME280;47669;48.712;9.016;2023-08-01T02:03:52;95499.59;;;15.91;86.80
61769;BME280;47669;48.712;9.016;2023-08-01T02:06:17;95508.69;;;15.90;86.85
61769;BME280;47669;48.712;9.016;2023-08-01T02:08:43;95504.66;;;15.92;86.88
61769;BME280;47669;48.712;9.016;2023-08-01T02:11:08;95494.56;;;15.84;87.22
61769;BME280;47669;48.712;9.016;2023-08-01T02:13:33;95496.38;;;15.99;85.44
61769;BME280;47669;48.712;9.016;2023-08-01T02:15:59;95494.75;;;16.08;86.35
61769;BME280;47669;48.712;9.016;2023-08-01T02:18:24;95497.19;;;15.94;87.86
61769;BME280;47669;48.712;9.016;2023-08-01T02:20:49;95497.19;;;15.89;88.73
61769;BME280;47669;48.712;9.016;2023-08-01T02:23:15;95500.94;;;15.98;87.31
61769;BME280;47669;48.712;9.016;2023-08-01T02:25:41;95501.16;;;16.07;87.03
61769;BME280;47669;48.712;9.016;2023-08-01T02:28:07;95507.06;;;15.88;88.18
61769;BME280;47669;48.712;9.016;2023-08-01T02:30:35;95503.88;;;15.76;88.78
61769;BME280;47669;48.712;9.016;2023-08-01T02:33:01;95501.97;;;16.02;87.58
61769;BME280;47669;48.712;9.016;2023-08-01T02:35:26;95499.84;;;15.99;86.58
61769;BME280;47669;48.712;9.016;2023-08-01T02:37:53;95500.88;;;16.14;85.41
61769;BME280;47669;48.712;9.016;2023-08-01T02:40:18;95502.50;;;16.10;85.75
61769;BME280;47669;48.712;9.016;2023-08-01T02:42:44;95504.34;;;16.14;85.17
61769;BME280;47669;48.712;9.016;2023-08-01T02:45:09;95509.66;;;16.14;86.37
61769;BME280;47669;48.712;9.016;2023-08-01T02:47:34;95504.28;;;16.29;85.48
61769;BME280;47669;48.712;9.016;2023-08-01T02:50:00;95493.69;;;16.19;86.51
61769;BME280;47669;48.712;9.016;2023-08-01T02:52:25;95490.72;;;16.26;84.85
61769;BME280;47669;48.712;9.016;2023-08-01T02:54:50;95502.25;;;16.01;87.53
61769;BME280;47669;48.712;9.016;2023-08-01T02:57:16;95495.84;;;16.07;86.47
61769;BME280;47669;48.712;9.016;2023-08-01T02:59:41;95491.28;;;16.13;85.60
61769;BME280;47669;48.712;9.016;2023-08-01T03:02:06;95482.19;;;16.19;85.30
61769;BME280;47669;48.712;9.016;2023-08-01T03:04:31;95477.16;;;16.17;86.23
61769;BME280;47669;48.712;9.016;2023-08-01T03:06:57;95474.31;;;15.88;88.34
61769;BME280;47669;48.712;9.016;2023-08-01T03:09:22;95474.03;;;15.84;88.37
61769;BME280;47669;48.712;9.016;2023-08-01T03:11:47;95474.56;;;15.86;88.23
61769;BME280;47669;48.712;9.016;2023-08-01T03:14:12;95465.00;;;15.85;87.93
61769;BME280;47669;48.712;9.016;2023-08-01T03:16:38;95469.41;;;16.11;86.06
61769;BME280;47669;48.712;9.016;2023-08-01T03:19:03;95460.88;;;16.19;85.67
61769;BME280;47669;48.712;9.016;2023-08-01T03:21:32;95467.25;;;16.28;84.21
61769;BME280;47669;48.712;9.016;2023-08-01T03:23:58;95472.53;;;16.38;83.23
61769;BME280;47669;48.712;9.016;2023-08-01T03:26:23;95472.50;;;16.43;83.03
61769;BME280;47669;48.712;9.016;2023-08-01T03:28:48;95477.00;;;16.48;82.62
61769;BME280;47669;48.712;9.016;2023-08-01T03:31:13;95475.66;;;16.51;82.42
61769;BME280;47669;48.712;9.016;2023-08-01T03:33:39;95480.47;;;16.54;82.64
61769;BME280;47669;48.712;9.016;2023-08-01T03:36:04;95477.47;;;16.65;81.26
61769;BME280;47669;48.712;9.016;2023-08-01T03:38:30;95480.59;;;16.78;80.28
61769;BME280;47669;48.712;9.016;2023-08-01T03:40:55;95479.59;;;16.63;81.45
61769;BME280;47669;48.712;9.016;2023-08-01T03:43:20;95487.59;;;16.68;80.94
61769;BME280;47669;48.712;9.016;2023-08-01T03:45:48;95491.53;;;16.76;80.09
61769;BME280;47669;48.712;9.016;2023-08-01T03:48:14;95489.69;;;16.72;81.22
61769;BME280;47669;48.712;9.016;2023-08-01T03:50:39;95493.97;;;16.67;80.88
61769;BME280;47669;48.712;9.016;2023-08-01T03:53:04;95495.38;;;16.55;82.02
61769;BME280;47669;48.712;9.016;2023-08-01T03:55:30;95496.16;;;16.60;81.28
61769;BME280;47669;48.712;9.016;2023-08-01T03:57:55;95484.72;;;16.60;81.22
61769;BME280;47669;48.712;9.016;2023-08-01T04:00:20;95485.47;;;16.65;81.15
61769;BME280;47669;48.712;9.016;2023-08-01T04:02:45;95498.00;;;16.70;80.87
61769;BME280;47669;48.712;9.016;2023-08-01T04:05:11;95482.50;;;16.72;80.42
61769;BME280;47669;48.712;9.016;2023-08-01T04:07:39;95479.06;;;16.66;80.78
61769;BME280;47669;48.712;9.016;2023-08-01T04:10:05;95457.22;;;16.59;81.54
61769;BME280;47669;48.712;9.016;2023-08-01T04:12:34;95438.06;;;16.52;81.94
61769;BME280;47669;48.712;9.016;2023-08-01T04:14:59;95438.84;;;16.58;82.17
61769;BME280;47669;48.712;9.016;2023-08-01T04:17:25;95415.34;;;16.60;81.63
61769;BME280;47669;48.712;9.016;2023-08-01T04:19:50;95406.31;;;16.51;82.07
61769;BME280;47669;48.712;9.016;2023-08-01T04:22:15;95403.97;;;16.49;82.49
61769;BME280;47669;48.712;9.016;2023-08-01T04:24:41;95383.94;;;16.52;82.18
61769;BME280;47669;48.712;9.016;2023-08-01T04:27:06;95380.53;;;16.41;83.31
61769;BME280;47669;48.712;9.016;2023-08-01T04:29:32;95346.41;;;16.43;82.79
61769;BME280;47669;48.712;9.016;2023-08-01T04:31:57;95325.34;;;16.41;83.11
61769;BME280;47669;48.712;9.016;2023-08-01T04:34:22;95291.47;;;16.42;82.49
61769;BME280;47669;48.712;9.016;2023-08-01T04:36:48;95278.09;;;16.47;81.61
61769;BME280;47669;48.712;9.016;2023-08-01T04:39:13;95253.59;;;16.40;82.13
61769;BME280;47669;48.712;9.016;2023-08-01T04:41:38;95246.06;;;16.52;81.15
61769;BME280;47669;48.712;9.016;2023-08-01T04:44:04;95300.09;;;16.63;80.30
61769;BME280;47669;48.712;9.016;2023-08-01T04:46:29;95291.03;;;16.64;80.06
61769;BME280;47669;48.712;9.016;2023-08-01T04:48:54;95298.22;;;16.63;79.88
61769;BME280;47669;48.712;9.016;2023-08-01T04:51:19;95295.47;;;16.74;78.62
61769;BME280;47669;48.712;9.016;2023-08-01T04:53:45;95306.53;;;16.62;80.29
61769;BME280;47669;48.712;9.016;2023-08-01T04:56:10;95310.81;;;16.58;80.38
61769;BME280;47669;48.712;9.016;2023-08-01T04:58:35;95311.66;;;16.53;80.99
61769;BME280;47669;48.712;9.016;2023-08-01T05:01:00;95311.28;;;16.65;79.55
61769;BME280;47669;48.712;9.016;2023-08-01T05:03:26;95313.72;;;16.61;79.92
61769;BME280;47669;48.712;9.016;2023-08-01T05:05:51;95322.28;;;16.58;80.28
61769;BME280;47669;48.712;9.016;2023-08-01T05:08:16;95335.16;;;16.51;80.86
61769;BME280;47669;48.712;9.016;2023-08-01T05:10:41;95355.56;;;16.66;79.25
61769;BME280;47669;48.712;9.016;2023-08-01T05:13:07;95344.84;;;16.71;78.75
61769;BME280;47669;48.712;9.016;2023-08-01T05:15:32;95333.34;;;16.76;78.29
61769;BME280;47669;48.712;9.016;2023-08-01T05:17:57;95323.78;;;16.69;78.94
61769;BME280;47669;48.712;9.016;2023-08-01T05:20:22;95320.00;;;16.76;78.04
61769;BME280;47669;48.712;9.016;2023-08-01T05:22:48;95328.31;;;16.69;78.84
61769;BME280;47669;48.712;9.016;2023-08-01T05:25:13;95344.28;;;16.74;78.03
61769;BME280;47669;48.712;9.016;2023-08-01T05:27:38;95353.09;;;16.75;77.44
61769;BME280;47669;48.712;9.016;2023-08-01T05:30:04;95361.06;;;16.80;77.02
61769;BME280;47669;48.712;9.016;2023-08-01T05:32:29;95372.00;;;16.83;76.56
61769;BME280;47669;48.712;9.016;2023-08-01T05:34:54;95362.16;;;16.74;77.63
61769;BME280;47669;48.712;9.016;2023-08-01T05:37:20;95357.41;;;16.71;77.93
61769;BME280;47669;48.712;9.016;2023-08-01T05:39:45;95352.50;;;16.88;76.13
61769;BME280;47669;48.712;9.016;2023-08-01T05:42:10;95345.53;;;16.92;75.49
61769;BME280;47669;48.712;9.016;2023-08-01T05:44:36;95343.38;;;16.94;75.55
61769;BME280;47669;48.712;9.016;2023-08-01T05:47:01;95349.75;;;16.98;75.48
61769;BME280;47669;48.712;9.016;2023-08-01T05:49:26;95352.69;;;16.97;75.91
61769;BME280;47669;48.712;9.016;2023-08-01T05:51:53;95356.19;;;16.92;76.33
61769;BME280;47669;48.712;9.016;2023-08-01T05:54:18;95352.16;;;16.95;76.13
61769;BME280;47669;48.712;9.016;2023-08-01T05:56:44;95366.53;;;16.99;75.39
61769;BME280;47669;48.712;9.016;2023-08-01T05:59:09;95369.72;;;17.01;74.25
61769;BME280;47669;48.712;9.016;2023-08-01T06:01:34;95374.28;;;17.00;74.93
61769;BME280;47669;48.712;9.016;2023-08-01T06:03:59;95367.31;;;17.04;74.68
61769;BME280;47669;48.712;9.016;2023-08-01T06:06:25;95369.59;;;17.16;72.05
61769;BME280;47669;48.712;9.016;2023-08-01T06:08:50;95375.81;;;17.06;73.13
61769;BME280;47669;48.712;9.016;2023-08-01T06:11:16;95374.00;;;17.02;73.49
61769;BME280;47669;48.712;9.016;2023-08-01T06:13:42;95382.81;;;16.97;73.82
61769;BME280;47669;48.712;9.016;2023-08-01T06:16:07;95383.66;;;16.93;73.53
61769;BME280;47669;48.712;9.016;2023-08-01T06:18:32;95371.69;;;16.90;73.93
61769;BME280;47669;48.712;9.016;2023-08-01T06:20:58;95363.16;;;16.88;74.27
61769;BME280;47669;48.712;9.016;2023-08-01T06:23:23;95358.09;;;16.86;73.24
61769;BME280;47669;48.712;9.016;2023-08-01T06:25:48;95374.94;;;16.87;73.59
61769;BME280;47669;48.712;9.016;2023-08-01T06:28:14;95397.28;;;16.91;73.99
61769;BME280;47669;48.712;9.016;2023-08-01T06:30:39;95393.78;;;16.96;72.34
61769;BME280;47669;48.712;9.016;2023-08-01T06:33:04;95397.56;;;16.89;72.55
61769;BME280;47669;48.712;9.016;2023-08-01T06:35:29;95393.88;;;16.80;72.79
61769;BME280;47669;48.712;9.016;2023-08-01T06:37:55;95392.25;;;16.84;71.74
61769;BME280;47669;48.712;9.016;2023-08-01T06:40:20;95400.56;;;16.78;72.38
61769;BME280;47669;48.712;9.016;2023-08-01T06:42:45;95402.97;;;16.74;72.45
61769;BME280;47669;48.712;9.016;2023-08-01T06:45:10;95411.75;;;16.80;72.14
61769;BME280;47669;48.712;9.016;2023-08-01T06:47:36;95400.16;;;16.60;75.27
61769;BME280;47669;48.712;9.016;2023-08-01T06:50:01;95407.47;;;16.39;76.15
61769;BME280;47669;48.712;9.016;2023-08-01T06:52:26;95405.91;;;16.33;77.22
61769;BME280;47669;48.712;9.016;2023-08-01T06:54:51;95398.13;;;16.42;75.62
61769;BME280;47669;48.712;9.016;2023-08-01T06:57:17;95393.06;;;16.40;74.95
61769;BME280;47669;48.712;9.016;2023-08-01T06:59:42;95390.69;;;16.39;75.96
61769;BME280;47669;48.712;9.016;2023-08-01T07:02:07;95400.25;;;16.40;76.24
61769;BME280;47669;48.712;9.016;2023-08-01T07:04:33;95396.22;;;16.47;75.29
61769;BME280;47669;48.712;9.016;2023-08-01T07:06:59;95404.75;;;16.49;75.46
61769;BME280;47669;48.712;9.016;2023-08-01T07:09:24;95400.47;;;16.48;76.14
61769;BME280;47669;48.712;9.016;2023-08-01T07:11:49;95407.69;;;16.48;75.34
61769;BME280;47669;48.712;9.016;2023-08-01T07:14:15;95406.38;;;16.45;76.11
61769;BME280;47669;48.712;9.016;2023-08-01T07:16:40;95393.69;;;16.22;77.76
61769;BME280;47669;48.712;9.016;2023-08-01T07:19:05;95406.78;;;16.18;80.16
61769;BME280;47669;48.712;9.016;2023-08-01T07:21:31;95404.72;;;16.00;80.70
61769;BME280;47669;48.712;9.016;2023-08-01T07:23:56;95409.47;;;16.08;81.45
61769;BME280;47669;48.712;9.016;2023-08-01T07:26:22;95417.75;;;16.01;80.05
61769;BME280;47669;48.712;9.016;2023-08-01T07:28:48;95426.03;;;16.00;81.10
61769;BME280;47669;48.712;9.016;2023-08-01T07:31:13;95420.16;;;15.98;82.05
61769;BME280;47669;48.712;9.016;2023-08-01T07:33:38;95428.69;;;16.00;82.04
61769;BME280;47669;48.712;9.016;2023-08-01T07:36:04;95425.53;;;15.93;82.74
61769;BME280;47669;48.712;9.016;2023-08-01T07:38:29;95424.72;;;15.87;83.45
61769;BME280;47669;48.712;9.016;2023-08-01T07:40:57;95433.03;;;15.80;85.11
61769;BME280;47669;48.712;9.016;2023-08-01T07:43:22;95436.22;;;15.67;85.82
61769;BME280;47669;48.712;9.016;2023-08-01T07:45:48;95443.72;;;15.50;87.40
61769;BME280;47669;48.712;9.016;2023-08-01T07:48:15;95438.91;;;15.46;87.57
61769;BME280;47669;48.712;9.016;2023-08-01T07:50:40;95440.50;;;15.53;87.70
61769;BME280;47669;48.712;9.016;2023-08-01T07:53:06;95421.34;;;15.45;88.85
61769;BME280;47669;48.712;9.016;2023-08-01T07:55:33;95421.59;;;15.49;88.98
61769;BME280;47669;48.712;9.016;2023-08-01T07:57:59;95431.72;;;15.47;89.02
61769;BME280;47669;48.712;9.016;2023-08-01T08:00:24;95431.19;;;15.45;89.58
61769;BME280;47669;48.712;9.016;2023-08-01T08:02:50;95429.59;;;15.34;89.80
61769;BME280;47669;48.712;9.016;2023-08-01T08:05:15;95433.84;;;15.45;90.10
61769;BME280;47669;48.712;9.016;2023-08-01T08:07:40;95421.09;;;15.37;90.34
61769;BME280;47669;48.712;9.016;2023-08-01T08:10:06;95417.63;;;15.52;90.21
61769;BME280;47669;48.712;9.016;2023-08-01T08:12:32;95425.84;;;15.45;90.38
61769;BME280;47669;48.712;9.016;2023-08-01T08:14:57;95427.47;;;15.46;91.13
61769;BME280;47669;48.712;9.016;2023-08-01T08:17:22;95420.53;;;15.50;91.10
61769;BME280;47669;48.712;9.016;2023-08-01T08:19:48;95411.75;;;15.44;91.04
61769;BME280;47669;48.712;9.016;2023-08-01T08:22:13;95424.81;;;15.41;91.11
61769;BME280;47669;48.712;9.016;2023-08-01T08:24:38;95411.22;;;15.42;90.97
61769;BME280;47669;48.712;9.016;2023-08-01T08:27:04;95427.22;;;15.37;90.64
61769;BME280;47669;48.712;9.016;2023-08-01T08:29:30;95417.84;;;15.55;91.11
61769;BME280;47669;48.712;9.016;2023-08-01T08:31:56;95424.00;;;15.56;90.69
61769;BME280;47669;48.712;9.016;2023-08-01T08:34:21;95418.63;;;15.76;91.22
61769;BME280;47669;48.712;9.016;2023-08-01T08:36:46;95426.03;;;16.05;90.98
61769;BME280;47669;48.712;9.016;2023-08-01T08:39:12;95413.94;;;16.28;89.85
61769;BME280;47669;48.712;9.016;2023-08-01T08:41:39;95421.66;;;16.24;90.22
61769;BME280;47669;48.712;9.016;2023-08-01T08:44:08;95433.25;;;15.89;90.29
61769;BME280;47669;48.712;9.016;2023-08-01T08:46:41;95442.84;;;15.95;90.53
61769;BME280;47669;48.712;9.016;2023-08-01T08:49:07;95435.41;;;15.87;90.74
61769;BME280;47669;48.712;9.016;2023-08-01T08:51:36;95432.19;;;15.85;91.17
61769;BME280;47669;48.712;9.016;2023-08-01T08:54:01;95425.41;;;16.23;90.72
61769;BME280;47669;48.712;9.016;2023-08-01T08:56:28;95426.78;;;16.11;91.46
61769;BME280;47669;48.712;9.016;2023-08-01T08:58:54;95426.25;;;16.08;91.36
61769;BME280;47669;48.712;9.016;2023-08-01T09:01:20;95423.25;;;16.31;91.57
61769;BME280;47669;48.712;9.016;2023-08-01T09:03:45;95416.91;;;16.16;90.51
61769;BME280;47669;48.712;9.016;2023-08-01T09:06:14;95415.50;;;16.29;91.08
61769;BME280;47669;48.712;9.016;2023-08-01T09:08:49;95427.31;;;16.13;91.24
61769;BME280;47669;48.712;9.016;2023-08-01T09:11:15;95429.19;;;16.17;91.07
61769;BME280;47669;48.712;9.016;2023-08-01T09:13:41;95424.97;;;16.01;90.81
61769;BME280;47669;48.712;9.016;2023-08-01T09:16:06;95422.00;;;16.07;91.11
61769;BME280;47669;48.712;9.016;2023-08-01T09:18:32;95421.69;;;16.19;90.33
61769;BME280;47669;48.712;9.016;2023-08-01T09:20:58;95441.38;;;16.28;90.56
61769;BME280;47669;48.712;9.016;2023-08-01T09:23:27;95436.31;;;16.32;91.26
61769;BME280;47669;48.712;9.016;2023-08-01T09:25:52;95417.59;;;16.37;90.61
61769;BME280;47669;48.712;9.016;2023-08-01T09:28:22;95433.00;;;16.51;90.21
61769;BME280;47669;48.712;9.016;2023-08-01T09:30:53;95438.38;;;16.45;89.85
61769;BME280;47669;48.712;9.016;2023-08-01T09:33:20;95439.72;;;16.38;90.86
61769;BME280;47669;48.712;9.016;2023-08-01T09:35:46;95438.88;;;16.47;90.69
61769;BME280;47669;48.712;9.016;2023-08-01T09:38:15;95446.69;;;16.34;90.67
61769;BME280;47669;48.712;9.016;2023-08-01T09:40:41;95449.25;;;16.54;91.32
61769;BME280;47669;48.712;9.016;2023-08-01T09:43:07;95446.88;;;16.47;90.07
61769;BME280;47669;48.712;9.016;2023-08-01T09:45:32;95456.78;;;16.42;90.57
61769;BME280;47669;48.712;9.016;2023-08-01T09:47:59;95455.25;;;16.80;90.33
61769;BME280;47669;48.712;9.016;2023-08-01T09:50:25;95458.47;;;16.77;89.33
61769;BME280;47669;48.712;9.016;2023-08-01T09:52:50;95455.78;;;16.77;89.99
61769;BME280;47669;48.712;9.016;2023-08-01T09:55:39;95444.59;;;16.80;88.56
61769;BME280;47669;48.712;9.016;2023-08-01T09:58:07;95450.19;;;16.84;88.59
61769;BME280;47669;48.712;9.016;2023-08-01T10:00:33;95451.22;;;16.88;89.37
61769;BME280;47669;48.712;9.016;2023-08-01T10:02:59;95444.97;;;17.03;88.64
61769;BME280;47669;48.712;9.016;2023-08-01T10:05:28;95438.47;;;16.75;88.80
61769;BME280;47669;48.712;9.016;2023-08-01T10:08:00;95435.53;;;16.81;88.73
61769;BME280;47669;48.712;9.016;2023-08-01T10:10:26;95438.19;;;16.81;87.82
61769;BME280;47669;48.712;9.016;2023-08-01T10:12:51;95439.13;;;17.01;88.04
61769;BME280;47669;48.712;9.016;2023-08-01T10:15:19;95439.63;;;17.03;87.27
61769;BME280;47669;48.712;9.016;2023-08-01T10:17:44;95447.44;;;16.94;86.84
61769;BME280;47669;48.712;9.016;2023-08-01T10:20:11;95454.88;;;17.02;87.17
61769;BME280;47669;48.712;9.016;2023-08-01T10:22:37;95456.63;;;17.12;87.56
61769;BME280;47669;48.712;9.016;2023-08-01T10:25:04;95455.34;;;17.09;86.86
61769;BME280;47669;48.712;9.016;2023-08-01T10:27:30;95452.16;;;17.07;87.49
61769;BME280;47669;48.712;9.016;2023-08-01T10:29:59;95458.28;;;17.08;86.69
61769;BME280;47669;48.712;9.016;2023-08-01T10:32:31;95452.25;;;17.32;87.07
61769;BME280;47669;48.712;9.016;2023-08-01T10:34:57;95453.94;;;18.29;85.07
61769;BME280;47669;48.712;9.016;2023-08-01T10:37:23;95451.75;;;18.55;84.15
61769;BME280;47669;48.712;9.016;2023-08-01T10:39:56;95457.66;;;18.71;80.26
61769;BME280;47669;48.712;9.016;2023-08-01T10:42:22;95453.19;;;19.89;81.46
61769;BME280;47669;48.712;9.016;2023-08-01T10:44:47;95451.41;;;20.12;77.03
61769;BME280;47669;48.712;9.016;2023-08-01T10:47:12;95458.72;;;18.94;78.14
61769;BME280;47669;48.712;9.016;2023-08-01T10:49:43;95462.19;;;18.08;81.22
61769;BME280;47669;48.712;9.016;2023-08-01T10:52:25;95476.81;;;17.92;81.29
61769;BME280;47669;48.712;9.016;2023-08-01T10:55:01;95473.69;;;18.09;77.56
61769;BME280;47669;48.712;9.016;2023-08-01T10:57:31;95479.47;;;18.83;78.45
61769;BME280;47669;48.712;9.016;2023-08-01T10:59:57;95484.25;;;18.43;75.80
61769;BME280;47669;48.712;9.016;2023-08-01T11:02:25;95481.59;;;18.62;72.32
61769;BME280;47669;48.712;9.016;2023-08-01T11:05:00;95499.28;;;18.63;71.43
61769;BME280;47669;48.712;9.016;2023-08-01T11:07:26;95506.13;;;18.02;71.18
61769;BME280;47669;48.712;9.016;2023-08-01T11:10:03;95495.41;;;18.50;69.86
61769;BME280;47669;48.712;9.016;2023-08-01T11:12:30;95499.19;;;19.11;69.88
61769;BME280;47669;48.712;9.016;2023-08-01T11:15:03;95498.31;;;18.30;69.64
61769;BME280;47669;48.712;9.016;2023-08-01T11:17:29;95519.38;;;17.83;70.96
61769;BME280;47669;48.712;9.016;2023-08-01T11:20:11;95514.72;;;17.99;71.71
61769;BME280;47669;48.712;9.016;2023-08-01T11:22:37;95514.38;;;18.97;68.72
61769;BME280;47669;48.712;9.016;2023-08-01T11:25:03;95519.97;;;18.77;67.04
61769;BME280;47669;48.712;9.016;2023-08-01T11:27:29;95513.66;;;19.10;65.58
61769;BME280;47669;48.712;9.016;2023-08-01T11:29:55;95509.25;;;19.71;66.87
61769;BME280;47669;48.712;9.016;2023-08-01T11:32:21;95511.66;;;19.54;63.20
61769;BME280;47669;48.712;9.016;2023-08-01T11:34:47;95522.94;;;20.17;61.85
61769;BME280;47669;48.712;9.016;2023-08-01T11:37:14;95531.75;;;19.00;63.03
61769;BME280;47669;48.712;9.016;2023-08-01T11:39:40;95522.13;;;18.80;63.04
61769;BME280;47669;48.712;9.016;2023-08-01T11:42:06;95531.81;;;19.14;62.11
61769;BME280;47669;48.712;9.016;2023-08-01T11:44:31;95528.19;;;19.42;61.59
61769;BME280;47669;48.712;9.016;2023-08-01T11:46:57;95526.06;;;19.58;59.23
61769;BME280;47669;48.712;9.016;2023-08-01T11:49:22;95525.03;;;20.20;60.99
61769;BME280;47669;48.712;9.016;2023-08-01T11:51:49;95523.28;;;20.70;59.99
61769;BME280;47669;48.712;9.016;2023-08-01T11:54:15;95531.47;;;20.19;57.60
61769;BME280;47669;48.712;9.016;2023-08-01T11:56:42;95520.34;;;20.11;57.37
61769;BME280;47669;48.712;9.016;2023-08-01T11:59:12;95531.09;;;20.39;56.70
61769;BME280;47669;48.712;9.016;2023-08-01T12:01:47;95510.34;;;20.72;57.42
61769;BME280;47669;48.712;9.016;2023-08-01T12:04:27;95514.41;;;20.56;57.17
61769;BME280;47669;48.712;9.016;2023-08-01T12:06:52;95527.81;;;20.98;56.38
61769;BME280;47669;48.712;9.016;2023-08-01T12:09:19;95509.16;;;19.77;56.02
61769;BME280;47669;48.712;9.016;2023-08-01T12:11:45;95515.88;;;20.07;55.88
61769;BME280;47669;48.712;9.016;2023-08-01T12:14:14;95519.00;;;21.20;52.95
61769;BME280;47669;48.712;9.016;2023-08-01T12:16:42;95523.03;;;20.94;53.71
61769;BME280;47669;48.712;9.016;2023-08-01T12:19:10;95513.31;;;20.71;51.38
61769;BME280;47669;48.712;9.016;2023-08-01T12:21:35;95513.16;;;21.04;52.43
61769;BME280;47669;48.712;9.016;2023-08-01T12:24:01;95506.91;;;21.08;51.68
61769;BME280;47669;48.712;9.016;2023-08-01T12:26:26;95520.69;;;21.97;51.86
61769;BME280;47669;48.712;9.016;2023-08-01T12:28:52;95522.31;;;21.84;51.25
61769;BME280;47669;48.712;9.016;2023-08-01T12:31:18;95519.03;;;21.65;52.61
61769;BME280;47669;48.712;9.016;2023-08-01T12:33:45;95516.53;;;21.91;50.17
61769;BME280;47669;48.712;9.016;2023-08-01T12:36:11;95519.19;;;21.60;53.12
61769;BME280;47669;48.712;9.016;2023-08-01T12:38:37;95530.22;;;21.58;51.87
61769;BME280;47669;48.712;9.016;2023-08-01T12:41:02;95509.81;;;23.08;50.58
61769;BME280;47669;48.712;9.016;2023-08-01T12:43:27;95521.28;;;21.94;49.09
61769;BME280;47669;48.712;9.016;2023-08-01T12:45:53;95522.81;;;21.86;51.36
61769;BME280;47669;48.712;9.016;2023-08-01T12:48:18;95520.38;;;22.79;48.71
61769;BME280;47669;48.712;9.016;2023-08-01T12:50:47;95525.81;;;21.85;50.80
61769;BME280;47669;48.712;9.016;2023-08-01T12:53:13;95530.78;;;21.32;50.24
61769;BME280;47669;48.712;9.016;2023-08-01T12:55:38;95528.91;;;22.23;47.61